KLWB

Greenbrier Valley Airport

Lewisburg, West Virginia, USA
METAR KLWB 170155Z AUTO 00000KT 10SM CLR 01/M05 A3017 RMK AO2 T00081055
Observed Flight Rules
Dec-17 @ 01:55 UTC (33 minutes ago) Visual Flight Rules
Wind Visibility Clouds
Calm 10 miles
  • Clear skies
Temperatures Readings
Current 1°C / 34°F
Dewpoint -6°C / 21°F
Humidity 60%
Altimeter 30.17" Hg
Pressure 1022 hPa
Elevation 702
METAR KLWB 170155Z AUTO 00000KT 10SM CLR 01/M05 A3017 RMK AO2 T00081055
Observed Flight Rules
Dec-17 @ 01:55 UTC
(33 minutes ago)
VFR
Wind Visibility
Calm 10 miles
Clouds
  • Clear skies
Temperature Dewpoint
1°C / 34°F -6°C / 21°F
Humidity Altimeter Pressure
60% 30.17" Hg 1022 hPa